Time;durP1;ratioP1;P1;durP2;ratioP2;P2;SDS_P1;SDS_P2;PMS_P1;PMS_P2;Temp;Humidity;BMP_temperature;BMP_pressure;BME280_temperature;BME280_humidity;BME280_pressure;Samples;Min_cycle;Max_cycle;Signal;HPM_P1;HPM_P2
2021/09/30 00:01:17;;;;;;;4.95;1.63;;;9.80;94.60;;;;;;5006219;28;20025;-66
2021/09/30 00:03:42;;;;;;;4.38;1.42;;;9.80;94.60;;;;;;5010142;28;20550;-67
2021/09/30 00:06:08;;;;;;;6.32;1.73;;;9.80;94.50;;;;;;5009356;28;20022;-67
2021/09/30 00:08:33;;;;;;;5.53;1.73;;;9.70;94.70;;;;;;5004592;28;20532;-65
2021/09/30 00:11:05;;;;;;;3.83;1.40;;;9.70;94.70;;;;;;5004625;28;20516;-66
2021/09/30 00:32:39;;;;;;;5.68;1.80;;;10.00;93.70;;;;;;5002495;28;20099;-66
2021/09/30 00:46:21;;;;;;;6.25;1.95;;;10.10;93.20;;;;;;5005155;28;20083;-67
2021/09/30 00:48:57;;;;;;;6.63;2.10;;;10.10;93.60;;;;;;5000291;28;20030;-67
2021/09/30 01:21:13;;;;;;;7.78;1.70;;;10.00;94.30;;;;;;4999463;28;20220;-66
2021/09/30 01:40:21;;;;;;;6.85;1.70;;;10.00;93.70;;;;;;5001837;28;20030;-67
2021/09/30 02:29:14;;;;;;;7.18;1.20;;;10.10;92.40;;;;;;5000865;28;20031;-66
2021/09/30 02:59:11;;;;;;;5.55;0.93;;;10.00;91.60;;;;;;5003387;28;20050;-67
2021/09/30 03:01:38;;;;;;;4.38;0.93;;;10.00;90.80;;;;;;5001317;28;20065;-67
2021/09/30 03:04:05;;;;;;;5.70;0.88;;;10.00;90.60;;;;;;4999199;28;20034;-67
2021/09/30 03:06:32;;;;;;;6.68;1.10;;;9.90;91.00;;;;;;4999447;28;20022;-67
2021/09/30 03:09:01;;;;;;;8.98;1.13;;;9.90;91.00;;;;;;5005646;28;20504;-66
2021/09/30 03:11:29;;;;;;;8.50;1.10;;;9.80;90.90;;;;;;5001511;28;20382;-67
2021/09/30 03:13:58;;;;;;;3.75;1.00;;;9.70;91.20;;;;;;4999755;28;20061;-66
2021/09/30 03:16:44;;;;;;;5.45;1.20;;;9.70;91.20;;;;;;5007940;28;20034;-67
2021/09/30 03:19:21;;;;;;;3.90;0.95;;;9.80;91.00;;;;;;4999869;28;20052;-67
2021/09/30 03:24:34;;;;;;;4.63;1.13;;;9.60;91.80;;;;;;4998621;28;20040;-65
2021/09/30 03:27:01;;;;;;;8.10;1.45;;;9.60;91.80;;;;;;5008745;28;20111;-67
2021/09/30 03:29:28;;;;;;;5.75;1.40;;;9.50;92.00;;;;;;5008226;28;20030;-65
2021/09/30 03:31:53;;;;;;;7.28;1.30;;;9.50;91.90;;;;;;5011510;28;20033;-66
2021/09/30 03:34:19;;;;;;;5.60;1.10;;;9.50;92.10;;;;;;5021557;28;20030;-67
2021/09/30 03:36:45;;;;;;;8.07;1.23;;;9.50;92.00;;;;;;5002986;28;20432;-67
2021/09/30 03:39:15;;;;;;;5.88;1.42;;;9.50;91.90;;;;;;5006155;28;20029;-68
2021/09/30 03:41:42;;;;;;;5.47;1.27;;;9.60;91.50;;;;;;5008634;28;20033;-68
2021/09/30 03:44:11;;;;;;;5.72;1.23;;;9.60;91.50;;;;;;5008887;28;20026;-66
2021/09/30 03:46:38;;;;;;;8.15;1.30;;;9.60;91.80;;;;;;5012627;28;20034;-67
2021/09/30 03:49:09;;;;;;;8.68;1.17;;;9.60;91.80;;;;;;5012810;28;20400;-68
2021/09/30 03:57:23;;;;;;;6.03;1.23;;;9.50;91.80;;;;;;4964276;28;20034;-67
2021/09/30 03:59:49;;;;;;;8.10;1.23;;;9.50;91.80;;;;;;4965429;28;20034;-67
2021/09/30 04:02:14;;;;;;;3.60;0.95;;;9.40;91.90;;;;;;4984601;28;20477;-67
2021/09/30 04:04:41;;;;;;;8.13;1.40;;;9.40;92.10;;;;;;5012235;28;20496;-67
2021/09/30 04:07:08;;;;;;;6.63;1.20;;;9.40;92.10;;;;;;5008258;28;20496;-67
2021/09/30 04:09:36;;;;;;;8.07;1.40;;;9.30;92.10;;;;;;5014097;28;20124;-65
2021/09/30 04:12:06;;;;;;;5.30;1.08;;;9.40;92.10;;;;;;5003780;28;20424;-67
2021/09/30 04:14:32;;;;;;;5.25;1.20;;;9.40;92.10;;;;;;5010112;28;20034;-67
2021/09/30 04:16:58;;;;;;;4.50;1.27;;;9.30;92.20;;;;;;5007646;28;20068;-67
2021/09/30 04:19:24;;;;;;;4.78;1.15;;;9.30;92.30;;;;;;5014159;28;20079;-66
2021/09/30 04:21:52;;;;;;;6.55;1.40;;;9.20;92.70;;;;;;5003463;28;20034;-64
2021/09/30 04:24:20;;;;;;;10.32;1.52;;;9.10;92.70;;;;;;5009846;28;20468;-64
2021/09/30 04:26:47;;;;;;;4.80;1.27;;;9.10;92.90;;;;;;5014337;28;20057;-64
2021/09/30 04:29:13;;;;;;;8.68;1.67;;;9.10;93.20;;;;;;4995580;28;20113;-64
2021/09/30 04:31:38;;;;;;;8.57;1.83;;;9.00;93.30;;;;;;5008675;28;20112;-64
2021/09/30 04:34:05;;;;;;;8.55;1.92;;;9.00;93.20;;;;;;5010308;28;20030;-63
2021/09/30 04:36:30;;;;;;;8.57;1.42;;;9.00;93.50;;;;;;5001420;28;20032;-63
2021/09/30 04:38:56;;;;;;;7.68;1.42;;;8.90;93.40;;;;;;5002222;28;20029;-62
2021/09/30 04:41:22;;;;;;;5.30;1.35;;;8.90;93.60;;;;;;5027310;28;20064;-63
2021/09/30 04:43:48;;;;;;;4.65;1.42;;;8.90;93.40;;;;;;5001144;28;20065;-63
2021/09/30 04:46:16;;;;;;;4.93;1.33;;;8.80;93.70;;;;;;5004735;28;20394;-64
2021/09/30 04:48:41;;;;;;;7.32;1.50;;;8.80;93.60;;;;;;5002301;28;20474;-63
2021/09/30 04:51:08;;;;;;;7.68;1.73;;;8.80;93.60;;;;;;4997984;28;20038;-62
2021/09/30 04:53:35;;;;;;;13.32;1.83;;;8.80;93.80;;;;;;5004484;28;20026;-64
2021/09/30 04:56:01;;;;;;;4.60;1.48;;;8.80;93.80;;;;;;5005485;28;20022;-64
2021/09/30 04:58:27;;;;;;;4.90;1.35;;;8.70;93.80;;;;;;5009791;28;20021;-63
2021/09/30 05:00:53;;;;;;;5.78;1.17;;;8.70;93.90;;;;;;5002242;28;20276;-66
2021/09/30 05:03:19;;;;;;;9.10;1.40;;;8.60;94.00;;;;;;5000196;28;20057;-65
2021/09/30 05:05:44;;;;;;;4.25;1.20;;;8.70;93.80;;;;;;5010521;28;20100;-64
2021/09/30 05:08:11;;;;;;;7.65;1.77;;;8.60;93.80;;;;;;5001740;28;20133;-63
2021/09/30 05:10:38;;;;;;;5.20;1.20;;;8.60;93.90;;;;;;4998831;28;20096;-63
2021/09/30 05:13:22;;;;;;;6.20;1.58;;;8.60;94.00;;;;;;5002931;28;20049;-65
2021/09/30 05:15:48;;;;;;;6.45;1.55;;;8.60;93.90;;;;;;5001605;28;20022;-64
2021/09/30 05:18:14;;;;;;;5.30;1.30;;;8.60;93.70;;;;;;5004259;28;20041;-65
2021/09/30 05:20:40;;;;;;;5.22;1.17;;;8.50;93.70;;;;;;5001686;28;20420;-64
2021/09/30 05:23:06;;;;;;;6.57;1.35;;;8.50;94.00;;;;;;4996537;28;20029;-65
2021/09/30 05:25:31;;;;;;;10.25;1.90;;;8.50;94.00;;;;;;5005775;28;20485;-65
2021/09/30 05:27:57;;;;;;;8.90;1.50;;;8.50;93.90;;;;;;5003172;28;20444;-65
2021/09/30 05:30:23;;;;;;;3.25;1.25;;;8.50;94.10;;;;;;5008911;28;20025;-64
2021/09/30 05:32:49;;;;;;;6.32;1.35;;;8.50;93.80;;;;;;5004064;28;20253;-65
2021/09/30 05:35:16;;;;;;;7.47;1.35;;;8.60;93.70;;;;;;4999774;28;20057;-65
2021/09/30 05:37:42;;;;;;;6.07;1.27;;;8.60;93.70;;;;;;5004550;28;20480;-65
2021/09/30 05:40:14;;;;;;;5.38;1.30;;;8.60;93.60;;;;;;5009457;28;20045;-63
2021/09/30 05:42:43;;;;;;;5.00;0.95;;;8.60;93.70;;;;;;5004637;28;20037;-65
2021/09/30 05:45:15;;;;;;;6.30;1.17;;;8.70;93.40;;;;;;5008052;28;20503;-65
2021/09/30 05:47:41;;;;;;;8.63;1.40;;;8.60;93.50;;;;;;5004811;28;20481;-64
2021/09/30 05:50:07;;;;;;;4.05;1.33;;;8.60;93.40;;;;;;4998164;28;20049;-65
2021/09/30 05:52:34;;;;;;;4.70;1.23;;;8.60;93.40;;;;;;4998068;28;20026;-65
2021/09/30 05:55:01;;;;;;;4.15;1.23;;;8.60;93.40;;;;;;5005326;28;20030;-65
2021/09/30 05:57:26;;;;;;;6.75;1.42;;;8.60;93.40;;;;;;4992147;28;20053;-65
2021/09/30 05:59:52;;;;;;;7.97;1.45;;;8.60;93.50;;;;;;5001251;28;20026;-65
2021/09/30 06:12:41;;;;;;;11.10;1.20;;;8.60;93.50;;;;;;5003347;28;20034;-65
2021/09/30 06:15:13;;;;;;;4.03;1.17;;;8.60;93.70;;;;;;5003417;28;20375;-65
2021/09/30 06:17:42;;;;;;;5.90;1.20;;;8.60;93.70;;;;;;5017579;28;20500;-65
2021/09/30 06:20:08;;;;;;;5.40;1.17;;;8.60;93.80;;;;;;5006625;28;20411;-64
2021/09/30 06:22:33;;;;;;;6.13;1.33;;;8.70;93.60;;;;;;5005001;28;20088;-64
2021/09/30 06:24:59;;;;;;;5.10;1.00;;;8.70;93.70;;;;;;5010494;28;20058;-65
2021/09/30 06:27:25;;;;;;;6.22;1.17;;;8.70;93.60;;;;;;5014772;28;20017;-65
2021/09/30 06:29:50;;;;;;;7.97;1.17;;;8.70;93.60;;;;;;5000410;28;20053;-65
2021/09/30 06:32:16;;;;;;;6.78;1.52;;;8.70;93.50;;;;;;5012701;28;20040;-65
2021/09/30 06:34:42;;;;;;;3.28;1.35;;;8.70;93.50;;;;;;5002964;28;20034;-65
2021/09/30 06:37:08;;;;;;;7.03;1.15;;;8.70;93.80;;;;;;5000841;28;20024;-65
2021/09/30 06:39:35;;;;;;;6.72;1.33;;;8.70;93.50;;;;;;5016905;28;20064;-65
2021/09/30 06:42:01;;;;;;;6.93;1.15;;;8.80;93.30;;;;;;5007093;28;20255;-64
2021/09/30 06:44:27;;;;;;;2.53;1.20;;;8.80;93.20;;;;;;5011701;28;20074;-65
2021/09/30 06:46:53;;;;;;;3.65;0.90;;;8.80;93.30;;;;;;4995857;28;20366;-65
2021/09/30 06:49:19;;;;;;;5.57;1.20;;;8.80;93.30;;;;;;5007260;28;20040;-65
2021/09/30 06:51:44;;;;;;;11.20;1.40;;;8.90;93.20;;;;;;5011432;28;20022;-65
2021/09/30 06:54:10;;;;;;;3.30;1.10;;;8.90;93.00;;;;;;5005717;28;20061;-64
2021/09/30 06:56:36;;;;;;;6.18;1.40;;;8.90;93.20;;;;;;5006318;28;20034;-65
2021/09/30 06:59:05;;;;;;;5.00;1.20;;;8.90;93.10;;;;;;5006568;28;20037;-65
2021/09/30 07:01:33;;;;;;;8.57;1.45;;;9.00;93.00;;;;;;4998591;28;20082;-65
2021/09/30 07:03:58;;;;;;;3.83;1.67;;;9.10;92.50;;;;;;4997151;28;20298;-64
2021/09/30 07:06:25;;;;;;;5.45;1.38;;;9.10;92.60;;;;;;5000382;28;20499;-65
2021/09/30 07:08:50;;;;;;;6.18;1.00;;;9.10;92.40;;;;;;4999199;28;20041;-65
2021/09/30 07:11:16;;;;;;;4.72;1.38;;;9.20;92.50;;;;;;5000639;28;20030;-64
2021/09/30 07:13:42;;;;;;;5.05;1.20;;;9.30;92.20;;;;;;5003834;28;20116;-64
2021/09/30 07:16:07;;;;;;;4.15;1.30;;;9.30;91.80;;;;;;5004466;28;20057;-63
2021/09/30 07:18:33;;;;;;;6.95;1.65;;;9.40;91.90;;;;;;4996095;28;20492;-64
2021/09/30 07:21:03;;;;;;;4.60;1.10;;;9.50;91.70;;;;;;5003221;28;20508;-65
2021/09/30 07:23:29;;;;;;;7.70;1.60;;;9.60;91.60;;;;;;5004268;28;20046;-65
2021/09/30 07:25:56;;;;;;;8.02;1.52;;;9.60;91.20;;;;;;4998302;28;20034;-65
2021/09/30 07:28:22;;;;;;;4.97;1.10;;;9.70;91.20;;;;;;4998341;28;20108;-65
2021/09/30 07:30:48;;;;;;;3.38;1.10;;;9.70;90.80;;;;;;5006789;28;20046;-65
2021/09/30 07:33:14;;;;;;;3.78;1.42;;;9.80;90.50;;;;;;5006810;28;20385;-65
2021/09/30 07:35:40;;;;;;;3.67;1.10;;;9.90;90.40;;;;;;5001766;28;20104;-64
2021/09/30 07:38:05;;;;;;;5.13;1.15;;;10.00;90.40;;;;;;5001876;28;20033;-65
2021/09/30 07:40:31;;;;;;;5.97;1.23;;;10.10;90.10;;;;;;5009159;28;20419;-63
2021/09/30 07:42:58;;;;;;;3.03;1.10;;;10.20;90.10;;;;;;5002094;28;20517;-65
2021/09/30 07:45:24;;;;;;;7.65;1.33;;;10.30;89.10;;;;;;5006149;28;20080;-65
2021/09/30 07:47:50;;;;;;;4.75;1.40;;;10.40;88.60;;;;;;5005980;28;20026;-64
2021/09/30 07:50:16;;;;;;;8.75;1.42;;;10.50;88.30;;;;;;5006252;28;20230;-65
2021/09/30 07:52:41;;;;;;;5.68;1.15;;;10.60;88.20;;;;;;5005393;28;20393;-65
2021/09/30 07:55:08;;;;;;;6.28;1.33;;;10.80;87.90;;;;;;5001005;28;20049;-65
2021/09/30 07:57:33;;;;;;;2.47;0.90;;;11.00;86.90;;;;;;5005284;28;20112;-65
2021/09/30 07:59:59;;;;;;;7.47;1.45;;;11.10;86.50;;;;;;5001362;28;20040;-65
2021/09/30 08:02:25;;;;;;;7.38;1.10;;;11.30;85.80;;;;;;5002331;28;20038;-64
2021/09/30 08:04:51;;;;;;;7.00;1.23;;;11.30;86.00;;;;;;5007314;28;20034;-65
2021/09/30 08:07:16;;;;;;;3.13;1.10;;;11.30;86.10;;;;;;5004781;28;20436;-65
2021/09/30 08:09:42;;;;;;;9.45;1.63;;;11.40;85.90;;;;;;5002132;28;20493;-65
2021/09/30 08:12:08;;;;;;;5.80;1.10;;;11.30;85.80;;;;;;5014860;28;20022;-64
2021/09/30 08:14:34;;;;;;;3.85;0.90;;;11.40;84.80;;;;;;5006650;28;20148;-64
2021/09/30 08:17:00;;;;;;;5.10;1.38;;;11.60;84.20;;;;;;5016347;28;20072;-64
2021/09/30 08:19:26;;;;;;;6.85;0.93;;;11.80;84.70;;;;;;5002300;28;20057;-66
2021/09/30 08:21:51;;;;;;;4.90;1.00;;;12.00;84.00;;;;;;5006869;28;20033;-64
2021/09/30 08:24:19;;;;;;;6.10;1.20;;;12.10;83.60;;;;;;5008228;28;20025;-65
2021/09/30 08:26:45;;;;;;;4.18;0.93;;;12.10;82.80;;;;;;5016705;28;20273;-65
2021/09/30 08:29:12;;;;;;;4.50;1.38;;;12.30;82.70;;;;;;5007737;28;20129;-65
2021/09/30 08:31:37;;;;;;;2.47;1.00;;;12.30;82.70;;;;;;5007287;28;20035;-66
2021/09/30 08:34:03;;;;;;;6.30;1.17;;;12.40;82.20;;;;;;5007118;28;20201;-65
2021/09/30 08:36:30;;;;;;;11.38;1.20;;;12.60;82.80;;;;;;5001726;28;20477;-65
2021/09/30 08:38:57;;;;;;;7.47;1.20;;;12.70;81.30;;;;;;5005349;28;20385;-66
2021/09/30 08:41:23;;;;;;;3.97;1.27;;;12.60;82.10;;;;;;5006167;28;20033;-65
2021/09/30 08:43:49;;;;;;;4.57;1.45;;;12.60;82.00;;;;;;5001434;28;20041;-66
2021/09/30 08:46:16;;;;;;;4.65;1.10;;;12.60;81.20;;;;;;5008572;28;20332;-65
2021/09/30 08:48:42;;;;;;;6.53;1.05;;;12.70;81.00;;;;;;5004701;28;20490;-66
2021/09/30 08:51:10;;;;;;;5.05;1.05;;;12.80;81.80;;;;;;5005350;28;20125;-66
2021/09/30 08:53:36;;;;;;;5.57;1.27;;;12.80;81.20;;;;;;5006222;28;20030;-66
2021/09/30 08:56:04;;;;;;;4.10;0.80;;;12.60;81.60;;;;;;5006925;28;20145;-66
2021/09/30 08:58:30;;;;;;;3.33;0.98;;;12.60;81.30;;;;;;5011267;28;20029;-65
2021/09/30 09:00:58;;;;;;;6.88;1.48;;;12.60;81.10;;;;;;5001263;28;20496;-65
2021/09/30 09:03:32;;;;;;;5.60;1.30;;;12.80;81.70;;;;;;5001537;28;20026;-65
2021/09/30 09:05:58;;;;;;;6.68;1.13;;;12.70;81.10;;;;;;5017214;28;20037;-65
2021/09/30 09:08:24;;;;;;;5.60;1.20;;;12.70;81.10;;;;;;5001267;28;20036;-64
2021/09/30 09:10:52;;;;;;;2.92;0.90;;;12.70;80.20;;;;;;5010706;28;20026;-64
2021/09/30 09:13:19;;;;;;;3.38;0.98;;;12.80;80.40;;;;;;5008273;28;20062;-65
2021/09/30 09:15:46;;;;;;;10.50;1.40;;;13.10;80.60;;;;;;5007561;28;20495;-66
2021/09/30 09:18:25;;;;;;;5.95;1.20;;;13.20;79.40;;;;;;5002793;28;20028;-66
2021/09/30 09:21:15;;;;;;;3.85;1.17;;;13.10;79.70;;;;;;5010480;28;20028;-64
2021/09/30 09:24:01;;;;;;;9.52;1.67;;;13.10;79.90;;;;;;5004135;28;20050;-65
2021/09/30 09:26:33;;;;;;;4.82;1.20;;;13.10;80.80;;;;;;5000917;28;20022;-65
2021/09/30 09:29:06;;;;;;;10.07;1.63;;;13.30;79.10;;;;;;5004859;28;20034;-65
2021/09/30 09:31:35;;;;;;;6.70;1.50;;;13.60;77.90;;;;;;5003743;28;20033;-65
2021/09/30 09:34:22;;;;;;;8.10;1.20;;;13.80;77.70;;;;;;5001018;28;20033;-66
2021/09/30 09:36:51;;;;;;;8.77;1.35;;;14.20;77.30;;;;;;4996563;28;20038;-66
2021/09/30 09:39:38;;;;;;;9.10;1.55;;;14.40;77.30;;;;;;5021827;28;20076;-66
2021/09/30 09:42:14;;;;;;;4.80;1.23;;;14.40;77.30;;;;;;5006507;28;20053;-65
2021/09/30 09:45:11;;;;;;;4.80;0.95;;;14.70;75.30;;;;;;5002113;28;20034;-65
2021/09/30 09:47:39;;;;;;;9.43;1.38;;;14.50;76.50;;;;;;4986071;28;20382;-66
2021/09/30 09:50:20;;;;;;;4.22;1.80;;;14.70;76.70;;;;;;5010625;28;20026;-65
2021/09/30 09:52:48;;;;;;;8.05;1.42;;;14.30;75.40;;;;;;4999124;28;20165;-64
2021/09/30 09:55:22;;;;;;;5.22;0.82;;;14.60;75.40;;;;;;5003388;28;20033;-65
2021/09/30 09:58:18;;;;;;;7.82;1.10;;;14.80;74.80;;;;;;4998016;28;20022;-65
2021/09/30 10:00:49;;;;;;;7.38;1.27;;;14.40;74.90;;;;;;4998157;28;20034;-66
2021/09/30 10:03:15;;;;;;;6.65;1.20;;;14.60;74.40;;;;;;4999065;28;20033;-65
2021/09/30 10:05:41;;;;;;;7.05;1.15;;;14.70;73.60;;;;;;4995054;28;20022;-65
2021/09/30 10:08:07;;;;;;;8.82;1.42;;;14.80;73.50;;;;;;5003048;28;20030;-65
2021/09/30 10:10:34;;;;;;;9.25;1.23;;;14.60;74.00;;;;;;4997346;28;20026;-64
2021/09/30 10:13:00;;;;;;;8.40;1.60;;;14.60;73.90;;;;;;4995026;28;20022;-65
2021/09/30 10:15:27;;;;;;;7.93;1.50;;;14.40;72.90;;;;;;5002018;28;20061;-65
2021/09/30 10:17:53;;;;;;;8.95;1.48;;;14.50;73.80;;;;;;5002772;28;20031;-65
2021/09/30 10:20:18;;;;;;;7.82;1.08;;;14.40;73.60;;;;;;5000026;28;20033;-64
2021/09/30 10:22:53;;;;;;;5.95;1.13;;;14.50;73.20;;;;;;4998204;28;20282;-65
2021/09/30 10:25:19;;;;;;;7.38;1.00;;;14.30;73.60;;;;;;4993411;28;20073;-65
2021/09/30 10:27:55;;;;;;;14.20;1.80;;;14.40;73.40;;;;;;4995566;28;20424;-66
2021/09/30 10:30:52;;;;;;;5.63;1.35;;;14.50;72.70;;;;;;5014929;28;20088;-66
2021/09/30 10:33:41;;;;;;;12.77;1.38;;;14.50;72.20;;;;;;4996378;28;20089;-66
2021/09/30 10:36:32;;;;;;;8.68;1.30;;;14.70;72.60;;;;;;4999140;28;20100;-64
2021/09/30 10:39:33;;;;;;;7.25;1.35;;;14.50;73.40;;;;;;5002829;28;20083;-66
2021/09/30 10:42:04;;;;;;;6.78;1.38;;;14.30;71.80;;;;;;4964948;28;20027;-63
2021/09/30 10:44:35;;;;;;;7.13;1.20;;;14.40;71.00;;;;;;4987625;28;20038;-64
2021/09/30 10:47:10;;;;;;;6.28;1.30;;;14.40;70.40;;;;;;5000890;28;20429;-64
2021/09/30 10:49:44;;;;;;;5.40;0.90;;;14.80;71.20;;;;;;4999359;28;20026;-64
2021/09/30 10:52:21;;;;;;;6.47;1.35;;;15.00;70.70;;;;;;5004073;28;20026;-63
2021/09/30 10:55:05;;;;;;;7.18;1.27;;;15.10;68.20;;;;;;4999561;28;20056;-65
2021/09/30 10:57:36;;;;;;;4.90;1.35;;;15.40;68.30;;;;;;4996896;28;20291;-64
2021/09/30 11:00:08;;;;;;;7.53;1.38;;;15.50;67.30;;;;;;5001108;28;20026;-64
2021/09/30 11:03:01;;;;;;;7.00;1.40;;;15.50;66.00;;;;;;5000148;28;20574;-64
2021/09/30 11:05:32;;;;;;;6.80;1.02;;;15.30;67.60;;;;;;5002607;28;20068;-64
2021/09/30 11:08:17;;;;;;;5.15;1.13;;;15.40;68.20;;;;;;4994958;28;20264;-65
2021/09/30 11:11:01;;;;;;;2.47;0.68;;;15.60;65.30;;;;;;5004199;28;20034;-64
2021/09/30 11:13:30;;;;;;;7.32;1.40;;;15.40;64.80;;;;;;5008881;28;20468;-64
2021/09/30 11:16:03;;;;;;;4.60;0.95;;;15.20;65.00;;;;;;5007598;28;20030;-66
2021/09/30 11:18:43;;;;;;;5.20;0.80;;;14.90;66.00;;;;;;4996567;28;20026;-65
2021/09/30 11:21:31;;;;;;;9.00;1.25;;;14.70;65.90;;;;;;5002558;28;20061;-65
2021/09/30 11:24:08;;;;;;;6.15;1.10;;;14.60;66.60;;;;;;5008899;28;20453;-66
2021/09/30 11:26:55;;;;;;;5.40;0.85;;;14.60;67.30;;;;;;5009953;28;20106;-65
2021/09/30 11:29:27;;;;;;;9.30;1.60;;;14.60;65.80;;;;;;4999578;28;20097;-65
2021/09/30 11:31:58;;;;;;;8.48;1.48;;;14.90;66.10;;;;;;5005739;28;20033;-65
2021/09/30 11:34:31;;;;;;;4.75;0.82;;;14.80;65.70;;;;;;5001416;28;20080;-64
2021/09/30 11:37:00;;;;;;;6.22;1.42;;;14.80;65.30;;;;;;5002168;28;20029;-64
2021/09/30 11:39:33;;;;;;;6.97;1.20;;;15.40;62.40;;;;;;5001439;28;20026;-65
2021/09/30 11:42:00;;;;;;;4.85;1.30;;;15.10;61.80;;;;;;5002665;28;20039;-65
2021/09/30 11:44:26;;;;;;;4.00;0.85;;;15.20;61.90;;;;;;5001037;28;20038;-65
2021/09/30 11:46:55;;;;;;;4.15;0.93;;;15.10;62.10;;;;;;5007164;28;20420;-66
2021/09/30 11:49:22;;;;;;;5.38;1.30;;;14.80;62.30;;;;;;5004378;28;20020;-64
2021/09/30 11:51:50;;;;;;;6.88;0.98;;;14.80;62.30;;;;;;4996155;28;20652;-67
2021/09/30 11:54:17;;;;;;;8.48;1.13;;;15.00;62.30;;;;;;4995521;28;20030;-64
2021/09/30 11:56:45;;;;;;;7.30;1.25;;;14.90;62.90;;;;;;5012071;28;20656;-65
2021/09/30 11:59:11;;;;;;;7.03;1.40;;;15.30;62.60;;;;;;5006673;28;20374;-65
2021/09/30 12:01:41;;;;;;;4.47;1.10;;;15.60;62.40;;;;;;4999252;28;21058;-65
2021/09/30 12:04:08;;;;;;;4.57;1.23;;;16.00;59.80;;;;;;4996711;28;20100;-65
2021/09/30 12:06:38;;;;;;;4.53;1.10;;;16.60;59.20;;;;;;5010598;28;20042;-65
2021/09/30 12:09:04;;;;;;;4.82;1.17;;;16.50;59.30;;;;;;5010070;28;20062;-66
2021/09/30 12:11:34;;;;;;;7.68;1.35;;;16.40;57.60;;;;;;5008504;28;20618;-64
2021/09/30 12:14:01;;;;;;;4.23;1.00;;;16.80;58.40;;;;;;5004864;28;20381;-65
2021/09/30 12:16:26;;;;;;;7.43;1.15;;;17.10;56.70;;;;;;5009559;28;20101;-65
2021/09/30 12:19:03;;;;;;;6.40;1.30;;;17.40;56.50;;;;;;5008452;28;20030;-65
2021/09/30 12:21:39;;;;;;;4.90;1.35;;;17.00;58.00;;;;;;5004658;28;20042;-65
2021/09/30 12:24:07;;;;;;;4.82;1.00;;;17.00;58.50;;;;;;4995720;28;20312;-65
2021/09/30 12:26:34;;;;;;;7.25;1.30;;;17.60;58.10;;;;;;5001203;28;20112;-65
2021/09/30 12:29:00;;;;;;;4.40;0.85;;;17.50;55.90;;;;;;5004968;28;20071;-65
2021/09/30 12:31:25;;;;;;;6.82;1.42;;;16.70;56.20;;;;;;5009670;28;20493;-65
2021/09/30 12:33:52;;;;;;;3.63;1.17;;;16.80;55.90;;;;;;5002600;28;20592;-65
2021/09/30 12:36:18;;;;;;;4.82;1.02;;;15.90;56.20;;;;;;5003287;28;20033;-63
2021/09/30 12:38:58;;;;;;;4.72;0.93;;;15.80;56.20;;;;;;5012041;28;20176;-64
2021/09/30 12:41:23;;;;;;;4.90;1.10;;;16.10;55.50;;;;;;5006245;28;20037;-65
2021/09/30 12:43:49;;;;;;;4.45;1.00;;;16.50;53.40;;;;;;5001629;28;20030;-64
2021/09/30 12:46:17;;;;;;;10.65;1.58;;;16.40;55.50;;;;;;5002864;28;20037;-63
2021/09/30 12:48:48;;;;;;;5.45;0.93;;;16.80;54.40;;;;;;5002143;28;20037;-63
2021/09/30 12:51:22;;;;;;;7.03;1.30;;;17.30;52.70;;;;;;4995590;28;20029;-65
2021/09/30 12:53:53;;;;;;;4.18;0.75;;;17.70;52.40;;;;;;5009141;28;20041;-65
2021/09/30 12:56:28;;;;;;;5.07;0.90;;;18.20;50.60;;;;;;4997907;28;20026;-65
2021/09/30 12:58:54;;;;;;;5.55;1.08;;;18.30;51.10;;;;;;5003264;28;20396;-64
2021/09/30 13:01:25;;;;;;;5.68;0.98;;;17.90;50.40;;;;;;4999845;28;20030;-61
2021/09/30 13:04:03;;;;;;;;;;;17.30;53.30;;;;;;5013247;28;20425;-62
2021/09/30 13:06:28;;;;;;;6.88;1.35;;;16.90;54.20;;;;;;5006129;28;19917;-64
2021/09/30 13:08:54;;;;;;;5.03;0.90;;;17.20;55.70;;;;;;5002648;28;20022;-63
2021/09/30 13:11:20;;;;;;;3.88;0.90;;;16.90;54.60;;;;;;5007439;28;20033;-64
2021/09/30 13:13:46;;;;;;;5.30;0.93;;;16.50;58.20;;;;;;5005612;28;20038;-64
2021/09/30 13:16:24;;;;;;;5.05;0.75;;;17.10;53.40;;;;;;5003213;28;20084;-64
2021/09/30 13:18:50;;;;;;;5.88;1.02;;;17.80;50.80;;;;;;5005673;28;20030;-63
2021/09/30 13:21:15;;;;;;;4.57;1.00;;;18.20;49.70;;;;;;5004177;28;20033;-64
2021/09/30 13:23:41;;;;;;;4.97;1.17;;;18.00;49.60;;;;;;5001933;28;20068;-63
2021/09/30 13:26:06;;;;;;;1.77;0.80;;;18.00;50.00;;;;;;5014998;28;20261;-65
2021/09/30 13:28:32;;;;;;;5.43;1.20;;;18.40;49.90;;;;;;5000334;28;20041;-64
2021/09/30 13:30:58;;;;;;;7.88;1.08;;;18.30;50.50;;;;;;5000574;28;20054;-64
2021/09/30 13:33:23;;;;;;;4.00;0.90;;;18.50;49.70;;;;;;5003332;28;20022;-65
2021/09/30 13:35:49;;;;;;;2.63;0.85;;;17.70;51.10;;;;;;4999628;28;20290;-65
2021/09/30 13:38:15;;;;;;;7.10;1.17;;;16.90;53.50;;;;;;5006393;28;20025;-65
2021/09/30 13:40:40;;;;;;;5.95;1.50;;;16.40;55.70;;;;;;5003559;28;20244;-63
2021/09/30 13:43:06;;;;;;;7.97;1.73;;;17.50;56.80;;;;;;5003509;28;20137;-65
2021/09/30 13:45:31;;;;;;;3.15;0.98;;;18.30;53.60;;;;;;4999409;28;20029;-64
2021/09/30 13:47:57;;;;;;;7.60;1.52;;;18.70;50.80;;;;;;4998500;28;20454;-66
2021/09/30 13:50:24;;;;;;;8.20;1.45;;;18.80;51.50;;;;;;5003925;28;20049;-65
2021/09/30 13:52:51;;;;;;;8.65;1.23;;;19.30;51.90;;;;;;5009147;28;20120;-65
2021/09/30 13:55:18;;;;;;;5.65;0.95;;;19.40;49.40;;;;;;4997518;28;20030;-64
2021/09/30 13:57:45;;;;;;;4.47;1.13;;;19.30;49.40;;;;;;5002469;28;20052;-64
2021/09/30 14:00:13;;;;;;;4.35;1.13;;;19.20;51.20;;;;;;5001778;28;20577;-65
2021/09/30 14:02:41;;;;;;;3.90;1.17;;;18.50;51.10;;;;;;4998125;28;20030;-65
2021/09/30 14:05:09;;;;;;;7.03;1.20;;;18.40;51.30;;;;;;5010346;28;20485;-64
2021/09/30 14:07:36;;;;;;;5.18;1.20;;;18.70;50.80;;;;;;4997334;28;20040;-65
2021/09/30 14:10:04;;;;;;;5.80;1.10;;;18.50;49.00;;;;;;5003125;28;20048;-65
2021/09/30 14:12:31;;;;;;;6.20;1.00;;;18.30;50.40;;;;;;4999824;28;20045;-63
2021/09/30 14:14:58;;;;;;;6.50;1.50;;;18.00;51.60;;;;;;5013349;28;20492;-65
2021/09/30 14:17:23;;;;;;;6.43;0.95;;;17.80;50.20;;;;;;5005300;28;20117;-65
2021/09/30 14:19:49;;;;;;;5.40;0.93;;;18.50;51.00;;;;;;4999343;28;20443;-64
2021/09/30 14:22:14;;;;;;;10.02;1.33;;;18.80;51.60;;;;;;5002949;28;20034;-65
2021/09/30 14:24:40;;;;;;;6.28;1.27;;;19.00;51.10;;;;;;5000039;28;20111;-64
2021/09/30 14:27:06;;;;;;;7.68;1.38;;;18.50;50.10;;;;;;5006711;28;20441;-65
2021/09/30 14:29:32;;;;;;;4.85;1.00;;;17.30;52.70;;;;;;4997442;28;20022;-65
2021/09/30 14:31:59;;;;;;;5.07;1.13;;;17.70;52.30;;;;;;5003760;28;20042;-65
2021/09/30 14:34:25;;;;;;;9.05;1.33;;;17.10;54.40;;;;;;5001783;28;20096;-63
2021/09/30 14:36:50;;;;;;;4.43;1.08;;;16.70;54.90;;;;;;4999305;28;20042;-61
2021/09/30 14:39:16;;;;;;;7.43;1.10;;;16.60;56.10;;;;;;4994303;28;20059;-62
2021/09/30 14:41:42;;;;;;;3.75;0.93;;;16.50;56.60;;;;;;5005048;28;20117;-63
2021/09/30 14:44:09;;;;;;;3.00;0.88;;;16.40;56.60;;;;;;5007897;28;20121;-62
2021/09/30 14:46:35;;;;;;;3.03;0.95;;;17.30;54.50;;;;;;5006548;28;20029;-61
2021/09/30 14:49:00;;;;;;;4.57;1.08;;;17.30;55.20;;;;;;5004642;28;20037;-64
2021/09/30 14:51:26;;;;;;;4.63;1.10;;;17.70;53.10;;;;;;5003742;28;20109;-62
2021/09/30 14:53:51;;;;;;;5.88;1.17;;;18.30;51.40;;;;;;5001624;28;20109;-63
2021/09/30 14:56:17;;;;;;;4.63;0.98;;;18.30;51.40;;;;;;4997573;28;20030;-62
2021/09/30 14:58:43;;;;;;;5.38;0.88;;;18.00;49.60;;;;;;5001864;28;20038;-62
2021/09/30 15:01:08;;;;;;;4.80;1.00;;;17.80;48.30;;;;;;4997126;28;20026;-64
2021/09/30 15:03:34;;;;;;;5.28;0.93;;;18.10;48.10;;;;;;5000875;28;20056;-62
2021/09/30 15:06:02;;;;;;;3.95;0.93;;;18.50;47.60;;;;;;4999903;28;20072;-64
2021/09/30 15:08:27;;;;;;;3.17;1.02;;;18.10;47.20;;;;;;5005483;28;20029;-61
2021/09/30 15:10:53;;;;;;;5.15;1.10;;;18.10;47.00;;;;;;4999544;28;20104;-65
2021/09/30 15:13:19;;;;;;;1.63;0.70;;;18.10;47.80;;;;;;5011901;28;20021;-64
2021/09/30 15:15:45;;;;;;;4.40;0.70;;;18.50;45.90;;;;;;5003164;28;20493;-67
2021/09/30 15:18:22;;;;;;;4.35;0.95;;;18.20;47.90;;;;;;5005318;28;20021;-66
2021/09/30 15:23:32;;;;;;;4.63;1.08;;;18.10;49.30;;;;;;4998486;28;20056;-66
2021/09/30 15:25:58;;;;;;;4.93;0.98;;;17.70;50.40;;;;;;4996333;28;20307;-67
2021/09/30 15:28:27;;;;;;;6.13;1.20;;;17.30;49.30;;;;;;5000315;28;20032;-65
2021/09/30 15:30:57;;;;;;;4.55;0.82;;;16.60;51.60;;;;;;5006616;28;20609;-66
2021/09/30 15:33:23;;;;;;;7.07;1.10;;;16.00;52.70;;;;;;5012839;28;20029;-64
2021/09/30 15:35:48;;;;;;;3.90;0.90;;;15.30;54.80;;;;;;5002432;28;20489;-64
2021/09/30 15:38:15;;;;;;;3.38;0.93;;;15.00;56.80;;;;;;5003180;28;20053;-64
2021/09/30 15:40:41;;;;;;;6.47;1.17;;;14.70;58.50;;;;;;5005436;28;20038;-63
2021/09/30 15:43:07;;;;;;;4.10;0.93;;;14.50;60.10;;;;;;5004131;28;20181;-66
2021/09/30 15:45:34;;;;;;;6.90;1.00;;;14.30;61.20;;;;;;4999447;28;20453;-66
2021/09/30 15:48:00;;;;;;;3.42;0.77;;;14.10;62.40;;;;;;4996602;28;20045;-66
2021/09/30 15:50:25;;;;;;;4.57;1.00;;;13.90;63.00;;;;;;5008687;28;20032;-66